sensor_id;sensor_type;location;lat;lon;timestamp;P1;durP1;ratioP1;P2;durP2;ratioP2
70132;SDS011;57495;49.922;7.966;2023-07-29T00:01:12;2.80;;;1.00;;
70132;SDS011;57495;49.922;7.966;2023-07-29T00:03:13;3.35;;;1.23;;
70132;SDS011;57495;49.922;7.966;2023-07-29T00:05:15;5.50;;;1.17;;
70132;SDS011;57495;49.922;7.966;2023-07-29T00:07:16;2.90;;;1.40;;
70132;SDS011;57495;49.922;7.966;2023-07-29T00:09:16;4.73;;;1.40;;
70132;SDS011;57495;49.922;7.966;2023-07-29T00:11:19;3.88;;;1.23;;
70132;SDS011;57495;49.922;7.966;2023-07-29T00:13:19;3.85;;;1.42;;
70132;SDS011;57495;49.922;7.966;2023-07-29T00:15:21;3.27;;;1.43;;
70132;SDS011;57495;49.922;7.966;2023-07-29T00:17:22;3.08;;;1.00;;
70132;SDS011;57495;49.922;7.966;2023-07-29T00:19:24;3.38;;;1.10;;
70132;SDS011;57495;49.922;7.966;2023-07-29T00:21:25;2.70;;;1.20;;
70132;SDS011;57495;49.922;7.966;2023-07-29T00:23:26;2.90;;;1.13;;
70132;SDS011;57495;49.922;7.966;2023-07-29T00:25:28;3.00;;;1.20;;
70132;SDS011;57495;49.922;7.966;2023-07-29T00:27:31;3.38;;;1.10;;
70132;SDS011;57495;49.922;7.966;2023-07-29T00:29:31;3.75;;;1.20;;
70132;SDS011;57495;49.922;7.966;2023-07-29T00:31:32;2.92;;;1.13;;
70132;SDS011;57495;49.922;7.966;2023-07-29T00:33:34;3.70;;;1.17;;
70132;SDS011;57495;49.922;7.966;2023-07-29T00:35:35;2.40;;;0.73;;
70132;SDS011;57495;49.922;7.966;2023-07-29T00:37:37;2.90;;;1.05;;
70132;SDS011;57495;49.922;7.966;2023-07-29T00:39:38;4.97;;;1.40;;
70132;SDS011;57495;49.922;7.966;2023-07-29T00:41:40;2.53;;;0.93;;
70132;SDS011;57495;49.922;7.966;2023-07-29T00:43:43;2.85;;;1.10;;
70132;SDS011;57495;49.922;7.966;2023-07-29T00:45:43;3.67;;;1.00;;
70132;SDS011;57495;49.922;7.966;2023-07-29T00:47:46;5.57;;;1.00;;
70132;SDS011;57495;49.922;7.966;2023-07-29T00:49:48;4.18;;;1.00;;
70132;SDS011;57495;49.922;7.966;2023-07-29T00:51:50;4.45;;;1.17;;
70132;SDS011;57495;49.922;7.966;2023-07-29T00:53:51;8.40;;;0.93;;
70132;SDS011;57495;49.922;7.966;2023-07-29T00:55:52;3.80;;;1.20;;
70132;SDS011;57495;49.922;7.966;2023-07-29T00:57:54;3.40;;;1.10;;
70132;SDS011;57495;49.922;7.966;2023-07-29T00:59:57;3.22;;;0.98;;
70132;SDS011;57495;49.922;7.966;2023-07-29T01:01:59;3.27;;;1.10;;
70132;SDS011;57495;49.922;7.966;2023-07-29T01:04:00;2.58;;;1.00;;
70132;SDS011;57495;49.922;7.966;2023-07-29T01:06:05;3.95;;;1.10;;
70132;SDS011;57495;49.922;7.966;2023-07-29T01:08:15;3.63;;;0.77;;
70132;SDS011;57495;49.922;7.966;2023-07-29T01:10:29;3.90;;;1.20;;
70132;SDS011;57495;49.922;7.966;2023-07-29T01:12:39;3.20;;;1.07;;
70132;SDS011;57495;49.922;7.966;2023-07-29T01:14:51;5.50;;;1.50;;
70132;SDS011;57495;49.922;7.966;2023-07-29T01:17:03;3.40;;;1.27;;
70132;SDS011;57495;49.922;7.966;2023-07-29T01:19:08;4.13;;;1.70;;
70132;SDS011;57495;49.922;7.966;2023-07-29T01:21:21;3.40;;;1.65;;
70132;SDS011;57495;49.922;7.966;2023-07-29T01:23:24;3.60;;;1.20;;
70132;SDS011;57495;49.922;7.966;2023-07-29T01:25:26;3.35;;;1.10;;
70132;SDS011;57495;49.922;7.966;2023-07-29T01:27:28;4.75;;;1.48;;
70132;SDS011;57495;49.922;7.966;2023-07-29T01:29:28;3.37;;;1.50;;
70132;SDS011;57495;49.922;7.966;2023-07-29T01:31:30;3.03;;;1.23;;
70132;SDS011;57495;49.922;7.966;2023-07-29T01:33:38;3.58;;;1.15;;
70132;SDS011;57495;49.922;7.966;2023-07-29T01:35:44;4.93;;;1.50;;
70132;SDS011;57495;49.922;7.966;2023-07-29T01:37:49;4.28;;;1.13;;
70132;SDS011;57495;49.922;7.966;2023-07-29T01:39:57;4.20;;;1.30;;
70132;SDS011;57495;49.922;7.966;2023-07-29T01:42:01;4.07;;;1.40;;
70132;SDS011;57495;49.922;7.966;2023-07-29T01:44:03;6.22;;;1.67;;
70132;SDS011;57495;49.922;7.966;2023-07-29T01:46:05;3.47;;;1.40;;
70132;SDS011;57495;49.922;7.966;2023-07-29T01:48:07;3.22;;;1.40;;
70132;SDS011;57495;49.922;7.966;2023-07-29T01:50:09;5.03;;;1.63;;
70132;SDS011;57495;49.922;7.966;2023-07-29T01:52:10;2.70;;;1.08;;
70132;SDS011;57495;49.922;7.966;2023-07-29T01:54:12;4.60;;;1.67;;
70132;SDS011;57495;49.922;7.966;2023-07-29T01:56:15;4.45;;;1.40;;
70132;SDS011;57495;49.922;7.966;2023-07-29T01:58:16;4.28;;;1.50;;
70132;SDS011;57495;49.922;7.966;2023-07-29T02:00:17;3.20;;;1.40;;
70132;SDS011;57495;49.922;7.966;2023-07-29T02:02:19;4.10;;;1.70;;
70132;SDS011;57495;49.922;7.966;2023-07-29T02:04:21;3.47;;;1.75;;
70132;SDS011;57495;49.922;7.966;2023-07-29T02:06:22;6.97;;;1.50;;
70132;SDS011;57495;49.922;7.966;2023-07-29T02:08:23;4.40;;;1.80;;
70132;SDS011;57495;49.922;7.966;2023-07-29T02:10:24;4.18;;;1.30;;
70132;SDS011;57495;49.922;7.966;2023-07-29T02:12:27;4.75;;;1.52;;
70132;SDS011;57495;49.922;7.966;2023-07-29T02:14:29;3.93;;;1.73;;
70132;SDS011;57495;49.922;7.966;2023-07-29T02:16:30;4.25;;;1.50;;
70132;SDS011;57495;49.922;7.966;2023-07-29T02:18:32;3.33;;;1.50;;
70132;SDS011;57495;49.922;7.966;2023-07-29T02:20:34;3.58;;;1.85;;
70132;SDS011;57495;49.922;7.966;2023-07-29T02:22:35;3.65;;;1.52;;
70132;SDS011;57495;49.922;7.966;2023-07-29T02:24:36;3.80;;;1.50;;
70132;SDS011;57495;49.922;7.966;2023-07-29T02:26:38;4.05;;;1.70;;
70132;SDS011;57495;49.922;7.966;2023-07-29T02:28:41;4.20;;;1.70;;
70132;SDS011;57495;49.922;7.966;2023-07-29T02:30:42;5.28;;;1.65;;
70132;SDS011;57495;49.922;7.966;2023-07-29T02:32:44;3.65;;;1.85;;
70132;SDS011;57495;49.922;7.966;2023-07-29T02:34:46;5.13;;;1.40;;
70132;SDS011;57495;49.922;7.966;2023-07-29T02:36:47;3.88;;;1.92;;
70132;SDS011;57495;49.922;7.966;2023-07-29T02:38:49;4.20;;;1.13;;
70132;SDS011;57495;49.922;7.966;2023-07-29T02:40:50;4.93;;;1.15;;
70132;SDS011;57495;49.922;7.966;2023-07-29T02:42:52;5.63;;;2.05;;
70132;SDS011;57495;49.922;7.966;2023-07-29T02:44:54;4.03;;;1.43;;
70132;SDS011;57495;49.922;7.966;2023-07-29T02:46:56;7.38;;;1.70;;
70132;SDS011;57495;49.922;7.966;2023-07-29T02:48:57;3.88;;;1.77;;
70132;SDS011;57495;49.922;7.966;2023-07-29T02:50:59;5.00;;;1.98;;
70132;SDS011;57495;49.922;7.966;2023-07-29T02:53:00;3.40;;;1.30;;
70132;SDS011;57495;49.922;7.966;2023-07-29T02:55:02;3.70;;;1.47;;
70132;SDS011;57495;49.922;7.966;2023-07-29T02:57:03;5.72;;;1.80;;
70132;SDS011;57495;49.922;7.966;2023-07-29T02:59:05;4.93;;;1.70;;
70132;SDS011;57495;49.922;7.966;2023-07-29T03:01:08;4.30;;;1.58;;
70132;SDS011;57495;49.922;7.966;2023-07-29T03:03:09;3.60;;;1.90;;
70132;SDS011;57495;49.922;7.966;2023-07-29T03:05:11;5.27;;;2.03;;
70132;SDS011;57495;49.922;7.966;2023-07-29T03:07:12;4.22;;;1.90;;
70132;SDS011;57495;49.922;7.966;2023-07-29T03:09:14;3.83;;;2.10;;
70132;SDS011;57495;49.922;7.966;2023-07-29T03:11:16;4.47;;;2.20;;
70132;SDS011;57495;49.922;7.966;2023-07-29T03:13:17;4.90;;;1.73;;
70132;SDS011;57495;49.922;7.966;2023-07-29T03:15:19;6.60;;;2.00;;
70132;SDS011;57495;49.922;7.966;2023-07-29T03:17:22;4.18;;;1.98;;
70132;SDS011;57495;49.922;7.966;2023-07-29T03:19:23;5.53;;;2.50;;
70132;SDS011;57495;49.922;7.966;2023-07-29T03:21:25;4.55;;;2.08;;
70132;SDS011;57495;49.922;7.966;2023-07-29T03:23:27;5.53;;;2.50;;
70132;SDS011;57495;49.922;7.966;2023-07-29T03:25:28;4.57;;;2.10;;
70132;SDS011;57495;49.922;7.966;2023-07-29T03:27:30;3.80;;;1.90;;
70132;SDS011;57495;49.922;7.966;2023-07-29T03:29:31;5.07;;;1.95;;
70132;SDS011;57495;49.922;7.966;2023-07-29T03:31:33;5.68;;;2.10;;
70132;SDS011;57495;49.922;7.966;2023-07-29T03:33:35;4.10;;;2.30;;
70132;SDS011;57495;49.922;7.966;2023-07-29T03:35:37;4.30;;;2.20;;
70132;SDS011;57495;49.922;7.966;2023-07-29T03:37:39;4.38;;;2.05;;
70132;SDS011;57495;49.922;7.966;2023-07-29T03:39:40;5.63;;;2.72;;
70132;SDS011;57495;49.922;7.966;2023-07-29T03:41:42;5.43;;;2.50;;
70132;SDS011;57495;49.922;7.966;2023-07-29T03:43:43;4.40;;;2.55;;
70132;SDS011;57495;49.922;7.966;2023-07-29T03:45:45;4.23;;;2.13;;
70132;SDS011;57495;49.922;7.966;2023-07-29T03:47:46;5.68;;;2.45;;
70132;SDS011;57495;49.922;7.966;2023-07-29T03:49:48;4.13;;;2.27;;
70132;SDS011;57495;49.922;7.966;2023-07-29T03:51:49;4.10;;;2.47;;
70132;SDS011;57495;49.922;7.966;2023-07-29T03:53:51;5.10;;;2.55;;
70132;SDS011;57495;49.922;7.966;2023-07-29T03:55:52;3.88;;;2.05;;
70132;SDS011;57495;49.922;7.966;2023-07-29T03:57:54;4.20;;;1.90;;
70132;SDS011;57495;49.922;7.966;2023-07-29T03:59:55;4.78;;;2.03;;
70132;SDS011;57495;49.922;7.966;2023-07-29T04:01:57;4.63;;;1.70;;
70132;SDS011;57495;49.922;7.966;2023-07-29T04:03:58;5.93;;;1.92;;
70132;SDS011;57495;49.922;7.966;2023-07-29T04:06:01;3.80;;;1.63;;
70132;SDS011;57495;49.922;7.966;2023-07-29T04:08:03;4.88;;;2.10;;
70132;SDS011;57495;49.922;7.966;2023-07-29T04:10:05;5.43;;;1.90;;
70132;SDS011;57495;49.922;7.966;2023-07-29T04:12:07;4.70;;;2.20;;
70132;SDS011;57495;49.922;7.966;2023-07-29T04:14:08;6.72;;;2.20;;
70132;SDS011;57495;49.922;7.966;2023-07-29T04:16:09;4.47;;;2.13;;
70132;SDS011;57495;49.922;7.966;2023-07-29T04:18:11;5.57;;;1.60;;
70132;SDS011;57495;49.922;7.966;2023-07-29T04:20:12;4.55;;;2.72;;
70132;SDS011;57495;49.922;7.966;2023-07-29T04:22:15;4.72;;;2.75;;
70132;SDS011;57495;49.922;7.966;2023-07-29T04:24:17;4.65;;;2.90;;
70132;SDS011;57495;49.922;7.966;2023-07-29T04:26:20;5.93;;;2.78;;
70132;SDS011;57495;49.922;7.966;2023-07-29T04:28:21;5.63;;;2.27;;
70132;SDS011;57495;49.922;7.966;2023-07-29T04:30:23;6.07;;;2.58;;
70132;SDS011;57495;49.922;7.966;2023-07-29T04:32:23;4.47;;;2.70;;
70132;SDS011;57495;49.922;7.966;2023-07-29T04:34:25;5.37;;;2.30;;
70132;SDS011;57495;49.922;7.966;2023-07-29T04:36:27;3.95;;;2.00;;
70132;SDS011;57495;49.922;7.966;2023-07-29T04:38:29;3.93;;;2.10;;
70132;SDS011;57495;49.922;7.966;2023-07-29T04:40:32;4.35;;;1.77;;
70132;SDS011;57495;49.922;7.966;2023-07-29T04:42:34;4.07;;;2.17;;
70132;SDS011;57495;49.922;7.966;2023-07-29T04:44:35;4.93;;;2.10;;
70132;SDS011;57495;49.922;7.966;2023-07-29T04:46:36;5.60;;;2.17;;
70132;SDS011;57495;49.922;7.966;2023-07-29T04:48:38;6.13;;;2.10;;
70132;SDS011;57495;49.922;7.966;2023-07-29T04:50:40;5.20;;;2.10;;
70132;SDS011;57495;49.922;7.966;2023-07-29T04:52:41;6.38;;;2.05;;
70132;SDS011;57495;49.922;7.966;2023-07-29T04:54:44;5.88;;;1.70;;
70132;SDS011;57495;49.922;7.966;2023-07-29T04:56:45;4.45;;;1.80;;
70132;SDS011;57495;49.922;7.966;2023-07-29T04:58:46;5.80;;;2.20;;
70132;SDS011;57495;49.922;7.966;2023-07-29T05:00:47;4.20;;;1.95;;
70132;SDS011;57495;49.922;7.966;2023-07-29T05:02:49;5.60;;;1.90;;
70132;SDS011;57495;49.922;7.966;2023-07-29T05:04:50;4.37;;;2.10;;
70132;SDS011;57495;49.922;7.966;2023-07-29T05:06:52;5.05;;;2.08;;
70132;SDS011;57495;49.922;7.966;2023-07-29T05:08:53;5.43;;;2.25;;
70132;SDS011;57495;49.922;7.966;2023-07-29T05:10:56;5.57;;;2.28;;
70132;SDS011;57495;49.922;7.966;2023-07-29T05:12:57;3.90;;;1.70;;
70132;SDS011;57495;49.922;7.966;2023-07-29T05:14:59;4.27;;;2.10;;
70132;SDS011;57495;49.922;7.966;2023-07-29T05:17:00;4.05;;;2.10;;
70132;SDS011;57495;49.922;7.966;2023-07-29T05:19:01;4.38;;;1.80;;
70132;SDS011;57495;49.922;7.966;2023-07-29T05:21:03;3.70;;;1.63;;
70132;SDS011;57495;49.922;7.966;2023-07-29T05:23:04;6.40;;;2.17;;
70132;SDS011;57495;49.922;7.966;2023-07-29T05:25:06;4.13;;;1.70;;
70132;SDS011;57495;49.922;7.966;2023-07-29T05:27:08;3.90;;;2.08;;
70132;SDS011;57495;49.922;7.966;2023-07-29T05:29:10;4.13;;;1.90;;
70132;SDS011;57495;49.922;7.966;2023-07-29T05:31:11;5.65;;;3.00;;
70132;SDS011;57495;49.922;7.966;2023-07-29T05:33:13;5.22;;;2.90;;
70132;SDS011;57495;49.922;7.966;2023-07-29T05:35:14;12.07;;;3.87;;
70132;SDS011;57495;49.922;7.966;2023-07-29T05:37:16;10.52;;;3.97;;
70132;SDS011;57495;49.922;7.966;2023-07-29T05:39:17;5.82;;;3.70;;
70132;SDS011;57495;49.922;7.966;2023-07-29T05:41:19;9.27;;;3.78;;
70132;SDS011;57495;49.922;7.966;2023-07-29T05:43:20;7.20;;;3.70;;
70132;SDS011;57495;49.922;7.966;2023-07-29T05:45:22;6.13;;;3.50;;
70132;SDS011;57495;49.922;7.966;2023-07-29T05:47:23;11.57;;;4.47;;
70132;SDS011;57495;49.922;7.966;2023-07-29T05:49:25;6.30;;;4.03;;
70132;SDS011;57495;49.922;7.966;2023-07-29T05:51:27;9.47;;;3.67;;
70132;SDS011;57495;49.922;7.966;2023-07-29T05:53:29;7.78;;;3.95;;
70132;SDS011;57495;49.922;7.966;2023-07-29T05:55:30;6.95;;;3.50;;
70132;SDS011;57495;49.922;7.966;2023-07-29T05:57:31;6.30;;;3.30;;
70132;SDS011;57495;49.922;7.966;2023-07-29T05:59:34;7.80;;;3.33;;
70132;SDS011;57495;49.922;7.966;2023-07-29T06:01:36;9.07;;;3.73;;
70132;SDS011;57495;49.922;7.966;2023-07-29T06:03:37;8.05;;;3.97;;
70132;SDS011;57495;49.922;7.966;2023-07-29T06:05:39;6.30;;;3.67;;
70132;SDS011;57495;49.922;7.966;2023-07-29T06:07:40;6.10;;;3.03;;
70132;SDS011;57495;49.922;7.966;2023-07-29T06:09:44;6.30;;;4.28;;
70132;SDS011;57495;49.922;7.966;2023-07-29T06:11:45;7.40;;;3.97;;
70132;SDS011;57495;49.922;7.966;2023-07-29T06:13:47;7.65;;;3.88;;
70132;SDS011;57495;49.922;7.966;2023-07-29T06:15:50;5.93;;;3.47;;
70132;SDS011;57495;49.922;7.966;2023-07-29T06:17:51;5.45;;;3.00;;
70132;SDS011;57495;49.922;7.966;2023-07-29T06:19:53;5.50;;;3.00;;
70132;SDS011;57495;49.922;7.966;2023-07-29T06:21:54;6.20;;;2.50;;
70132;SDS011;57495;49.922;7.966;2023-07-29T06:23:56;4.57;;;2.50;;
70132;SDS011;57495;49.922;7.966;2023-07-29T06:25:57;5.93;;;2.83;;
70132;SDS011;57495;49.922;7.966;2023-07-29T06:28:00;5.45;;;3.08;;
70132;SDS011;57495;49.922;7.966;2023-07-29T06:30:02;6.40;;;3.45;;
70132;SDS011;57495;49.922;7.966;2023-07-29T06:32:05;5.20;;;3.30;;
70132;SDS011;57495;49.922;7.966;2023-07-29T06:34:07;5.40;;;3.33;;
70132;SDS011;57495;49.922;7.966;2023-07-29T06:36:08;6.22;;;3.10;;
70132;SDS011;57495;49.922;7.966;2023-07-29T06:38:10;6.50;;;3.00;;
70132;SDS011;57495;49.922;7.966;2023-07-29T06:40:11;6.93;;;3.00;;
70132;SDS011;57495;49.922;7.966;2023-07-29T06:42:13;7.70;;;2.93;;
70132;SDS011;57495;49.922;7.966;2023-07-29T06:44:14;6.30;;;3.20;;
70132;SDS011;57495;49.922;7.966;2023-07-29T06:46:15;6.70;;;3.00;;
70132;SDS011;57495;49.922;7.966;2023-07-29T06:48:18;4.68;;;3.10;;
70132;SDS011;57495;49.922;7.966;2023-07-29T06:50:20;7.60;;;3.20;;
70132;SDS011;57495;49.922;7.966;2023-07-29T06:52:21;5.90;;;3.30;;
70132;SDS011;57495;49.922;7.966;2023-07-29T06:54:23;7.70;;;3.50;;
70132;SDS011;57495;49.922;7.966;2023-07-29T06:56:25;7.15;;;3.65;;
70132;SDS011;57495;49.922;7.966;2023-07-29T06:58:26;6.30;;;3.63;;
70132;SDS011;57495;49.922;7.966;2023-07-29T07:00:28;7.95;;;4.00;;
70132;SDS011;57495;49.922;7.966;2023-07-29T07:02:29;5.73;;;3.80;;
70132;SDS011;57495;49.922;7.966;2023-07-29T07:04:32;8.52;;;3.78;;
70132;SDS011;57495;49.922;7.966;2023-07-29T07:06:33;8.88;;;4.15;;
70132;SDS011;57495;49.922;7.966;2023-07-29T07:08:35;7.35;;;3.70;;
70132;SDS011;57495;49.922;7.966;2023-07-29T07:10:36;6.97;;;4.32;;
70132;SDS011;57495;49.922;7.966;2023-07-29T07:12:38;8.13;;;4.60;;
70132;SDS011;57495;49.922;7.966;2023-07-29T07:14:39;10.18;;;4.72;;
70132;SDS011;57495;49.922;7.966;2023-07-29T07:16:40;8.85;;;4.72;;
70132;SDS011;57495;49.922;7.966;2023-07-29T07:18:42;7.15;;;4.25;;
70132;SDS011;57495;49.922;7.966;2023-07-29T07:20:47;8.15;;;4.45;;
70132;SDS011;57495;49.922;7.966;2023-07-29T07:22:49;7.87;;;4.83;;
70132;SDS011;57495;49.922;7.966;2023-07-29T07:24:50;9.75;;;4.80;;
70132;SDS011;57495;49.922;7.966;2023-07-29T07:26:52;10.85;;;5.55;;
70132;SDS011;57495;49.922;7.966;2023-07-29T07:28:53;9.63;;;5.72;;
70132;SDS011;57495;49.922;7.966;2023-07-29T07:30:54;10.90;;;6.07;;
70132;SDS011;57495;49.922;7.966;2023-07-29T07:32:55;7.75;;;5.47;;
70132;SDS011;57495;49.922;7.966;2023-07-29T07:34:57;10.15;;;5.68;;
70132;SDS011;57495;49.922;7.966;2023-07-29T07:36:59;7.27;;;4.70;;
70132;SDS011;57495;49.922;7.966;2023-07-29T07:39:00;8.35;;;4.53;;
70132;SDS011;57495;49.922;7.966;2023-07-29T07:41:02;7.13;;;4.47;;
70132;SDS011;57495;49.922;7.966;2023-07-29T07:43:02;7.27;;;4.63;;
70132;SDS011;57495;49.922;7.966;2023-07-29T07:45:04;8.38;;;4.60;;
70132;SDS011;57495;49.922;7.966;2023-07-29T07:47:06;11.20;;;4.93;;
70132;SDS011;57495;49.922;7.966;2023-07-29T07:49:08;5.55;;;3.70;;
70132;SDS011;57495;49.922;7.966;2023-07-29T07:51:09;7.17;;;4.90;;
70132;SDS011;57495;49.922;7.966;2023-07-29T07:53:13;6.97;;;4.75;;
70132;SDS011;57495;49.922;7.966;2023-07-29T07:55:14;5.97;;;3.65;;
70132;SDS011;57495;49.922;7.966;2023-07-29T07:57:16;10.45;;;7.07;;
70132;SDS011;57495;49.922;7.966;2023-07-29T07:59:17;9.98;;;5.35;;
70132;SDS011;57495;49.922;7.966;2023-07-29T08:01:19;7.93;;;4.20;;
70132;SDS011;57495;49.922;7.966;2023-07-29T08:03:20;6.00;;;2.92;;
70132;SDS011;57495;49.922;7.966;2023-07-29T08:05:22;9.68;;;3.00;;
70132;SDS011;57495;49.922;7.966;2023-07-29T08:07:23;5.80;;;3.13;;
70132;SDS011;57495;49.922;7.966;2023-07-29T08:09:25;5.23;;;3.00;;
70132;SDS011;57495;49.922;7.966;2023-07-29T08:11:26;11.07;;;3.17;;
70132;SDS011;57495;49.922;7.966;2023-07-29T08:13:27;6.00;;;3.10;;
70132;SDS011;57495;49.922;7.966;2023-07-29T08:15:28;5.30;;;2.90;;
70132;SDS011;57495;49.922;7.966;2023-07-29T08:17:30;5.93;;;3.30;;
70132;SDS011;57495;49.922;7.966;2023-07-29T08:19:31;5.07;;;1.90;;
70132;SDS011;57495;49.922;7.966;2023-07-29T08:21:35;4.40;;;2.13;;
70132;SDS011;57495;49.922;7.966;2023-07-29T08:23:36;4.47;;;1.67;;
70132;SDS011;57495;49.922;7.966;2023-07-29T08:25:39;5.07;;;2.00;;
70132;SDS011;57495;49.922;7.966;2023-07-29T08:27:40;5.00;;;1.67;;
70132;SDS011;57495;49.922;7.966;2023-07-29T08:29:42;4.20;;;1.63;;
70132;SDS011;57495;49.922;7.966;2023-07-29T08:31:43;4.20;;;2.00;;
70132;SDS011;57495;49.922;7.966;2023-07-29T08:33:45;3.13;;;1.17;;
70132;SDS011;57495;49.922;7.966;2023-07-29T08:35:46;3.97;;;1.73;;
70132;SDS011;57495;49.922;7.966;2023-07-29T08:37:48;4.30;;;1.90;;
70132;SDS011;57495;49.922;7.966;2023-07-29T08:39:49;4.20;;;1.60;;
70132;SDS011;57495;49.922;7.966;2023-07-29T08:41:56;4.10;;;1.50;;
70132;SDS011;57495;49.922;7.966;2023-07-29T08:44:06;5.47;;;1.13;;
70132;SDS011;57495;49.922;7.966;2023-07-29T08:46:11;7.45;;;1.02;;
70132;SDS011;57495;49.922;7.966;2023-07-29T08:48:15;6.53;;;1.30;;
70132;SDS011;57495;49.922;7.966;2023-07-29T08:50:20;3.50;;;1.38;;
70132;SDS011;57495;49.922;7.966;2023-07-29T08:52:22;3.93;;;1.13;;
70132;SDS011;57495;49.922;7.966;2023-07-29T08:54:25;3.50;;;1.10;;
70132;SDS011;57495;49.922;7.966;2023-07-29T08:56:26;4.30;;;1.10;;
70132;SDS011;57495;49.922;7.966;2023-07-29T08:58:31;3.25;;;1.00;;
70132;SDS011;57495;49.922;7.966;2023-07-29T09:00:33;2.78;;;1.05;;
70132;SDS011;57495;49.922;7.966;2023-07-29T09:02:35;3.60;;;1.20;;
70132;SDS011;57495;49.922;7.966;2023-07-29T09:04:37;5.57;;;1.10;;
70132;SDS011;57495;49.922;7.966;2023-07-29T09:06:38;4.65;;;1.08;;
70132;SDS011;57495;49.922;7.966;2023-07-29T09:08:40;5.38;;;1.40;;
70132;SDS011;57495;49.922;7.966;2023-07-29T09:10:42;4.93;;;1.17;;
70132;SDS011;57495;49.922;7.966;2023-07-29T09:12:42;3.90;;;1.80;;
70132;SDS011;57495;49.922;7.966;2023-07-29T09:14:45;4.78;;;1.27;;
70132;SDS011;57495;49.922;7.966;2023-07-29T09:16:47;3.28;;;1.20;;
70132;SDS011;57495;49.922;7.966;2023-07-29T09:18:48;3.67;;;1.10;;
70132;SDS011;57495;49.922;7.966;2023-07-29T09:20:50;3.05;;;1.20;;
70132;SDS011;57495;49.922;7.966;2023-07-29T09:22:52;4.38;;;1.05;;
70132;SDS011;57495;49.922;7.966;2023-07-29T09:24:56;4.25;;;1.20;;
70132;SDS011;57495;49.922;7.966;2023-07-29T09:26:58;3.67;;;1.20;;
70132;SDS011;57495;49.922;7.966;2023-07-29T09:28:59;3.47;;;1.50;;
70132;SDS011;57495;49.922;7.966;2023-07-29T09:31:02;4.32;;;1.30;;
70132;SDS011;57495;49.922;7.966;2023-07-29T09:33:04;4.25;;;1.23;;
70132;SDS011;57495;49.922;7.966;2023-07-29T09:35:08;3.13;;;1.40;;
70132;SDS011;57495;49.922;7.966;2023-07-29T09:37:15;4.13;;;1.25;;
70132;SDS011;57495;49.922;7.966;2023-07-29T09:39:17;3.47;;;1.20;;
70132;SDS011;57495;49.922;7.966;2023-07-29T09:41:18;4.03;;;1.25;;
70132;SDS011;57495;49.922;7.966;2023-07-29T09:43:20;3.33;;;1.10;;
70132;SDS011;57495;49.922;7.966;2023-07-29T09:45:27;3.35;;;1.35;;
70132;SDS011;57495;49.922;7.966;2023-07-29T09:47:29;2.70;;;1.00;;
70132;SDS011;57495;49.922;7.966;2023-07-29T09:49:34;3.23;;;1.30;;
70132;SDS011;57495;49.922;7.966;2023-07-29T09:51:37;4.47;;;1.58;;
70132;SDS011;57495;49.922;7.966;2023-07-29T09:53:40;4.50;;;2.55;;
70132;SDS011;57495;49.922;7.966;2023-07-29T09:55:45;3.70;;;2.60;;
70132;SDS011;57495;49.922;7.966;2023-07-29T09:57:47;4.45;;;2.42;;
70132;SDS011;57495;49.922;7.966;2023-07-29T09:59:53;3.53;;;2.37;;
70132;SDS011;57495;49.922;7.966;2023-07-29T10:01:55;3.80;;;2.78;;
70132;SDS011;57495;49.922;7.966;2023-07-29T10:03:57;4.35;;;2.78;;
70132;SDS011;57495;49.922;7.966;2023-07-29T10:06:02;4.22;;;2.75;;
70132;SDS011;57495;49.922;7.966;2023-07-29T10:08:03;3.15;;;1.10;;
70132;SDS011;57495;49.922;7.966;2023-07-29T10:10:06;4.13;;;1.37;;
70132;SDS011;57495;49.922;7.966;2023-07-29T10:12:08;5.20;;;1.90;;
70132;SDS011;57495;49.922;7.966;2023-07-29T10:14:11;4.70;;;2.00;;
70132;SDS011;57495;49.922;7.966;2023-07-29T10:16:12;4.70;;;1.73;;
70132;SDS011;57495;49.922;7.966;2023-07-29T10:18:15;4.03;;;2.03;;
70132;SDS011;57495;49.922;7.966;2023-07-29T10:20:18;4.17;;;2.33;;
70132;SDS011;57495;49.922;7.966;2023-07-29T10:22:20;4.13;;;2.50;;
70132;SDS011;57495;49.922;7.966;2023-07-29T10:24:27;4.18;;;2.25;;
70132;SDS011;57495;49.922;7.966;2023-07-29T10:26:31;5.00;;;3.00;;
70132;SDS011;57495;49.922;7.966;2023-07-29T10:28:34;4.15;;;2.53;;
70132;SDS011;57495;49.922;7.966;2023-07-29T10:30:40;4.00;;;2.47;;
70132;SDS011;57495;49.922;7.966;2023-07-29T10:32:43;3.30;;;2.15;;
70132;SDS011;57495;49.922;7.966;2023-07-29T10:34:45;3.78;;;2.47;;
70132;SDS011;57495;49.922;7.966;2023-07-29T10:36:48;3.72;;;2.60;;
70132;SDS011;57495;49.922;7.966;2023-07-29T10:38:50;3.55;;;2.35;;
70132;SDS011;57495;49.922;7.966;2023-07-29T10:40:52;4.77;;;2.33;;
70132;SDS011;57495;49.922;7.966;2023-07-29T10:42:59;4.07;;;2.67;;
70132;SDS011;57495;49.922;7.966;2023-07-29T10:45:18;4.22;;;3.17;;
70132;SDS011;57495;49.922;7.966;2023-07-29T10:47:22;4.72;;;2.90;;
70132;SDS011;57495;49.922;7.966;2023-07-29T10:49:25;3.83;;;2.75;;
70132;SDS011;57495;49.922;7.966;2023-07-29T10:51:34;3.57;;;2.60;;
70132;SDS011;57495;49.922;7.966;2023-07-29T10:53:38;4.20;;;2.00;;
70132;SDS011;57495;49.922;7.966;2023-07-29T10:55:40;3.92;;;2.30;;
70132;SDS011;57495;49.922;7.966;2023-07-29T10:57:42;3.83;;;1.40;;
70132;SDS011;57495;49.922;7.966;2023-07-29T10:59:52;5.47;;;2.00;;
70132;SDS011;57495;49.922;7.966;2023-07-29T11:01:56;4.33;;;1.60;;
70132;SDS011;57495;49.922;7.966;2023-07-29T11:06:26;3.60;;;2.17;;
70132;SDS011;57495;49.922;7.966;2023-07-29T11:08:28;3.85;;;2.55;;
70132;SDS011;57495;49.922;7.966;2023-07-29T11:10:32;4.18;;;2.70;;
70132;SDS011;57495;49.922;7.966;2023-07-29T11:12:44;3.67;;;1.70;;
70132;SDS011;57495;49.922;7.966;2023-07-29T11:14:47;4.07;;;1.42;;
70132;SDS011;57495;49.922;7.966;2023-07-29T11:16:48;3.17;;;1.60;;
70132;SDS011;57495;49.922;7.966;2023-07-29T11:18:50;3.33;;;1.38;;
70132;SDS011;57495;49.922;7.966;2023-07-29T11:20:51;3.50;;;1.33;;
70132;SDS011;57495;49.922;7.966;2023-07-29T11:22:55;5.32;;;1.50;;
70132;SDS011;57495;49.922;7.966;2023-07-29T11:24:58;4.53;;;1.08;;
70132;SDS011;57495;49.922;7.966;2023-07-29T11:26:59;3.40;;;1.40;;
70132;SDS011;57495;49.922;7.966;2023-07-29T11:29:01;3.10;;;1.40;;
70132;SDS011;57495;49.922;7.966;2023-07-29T11:31:03;3.17;;;1.38;;
70132;SDS011;57495;49.922;7.966;2023-07-29T11:33:04;2.70;;;1.10;;
70132;SDS011;57495;49.922;7.966;2023-07-29T11:35:06;3.42;;;1.23;;
70132;SDS011;57495;49.922;7.966;2023-07-29T11:37:10;3.50;;;1.20;;
70132;SDS011;57495;49.922;7.966;2023-07-29T11:39:12;5.57;;;1.23;;
70132;SDS011;57495;49.922;7.966;2023-07-29T11:41:18;2.88;;;1.23;;
70132;SDS011;57495;49.922;7.966;2023-07-29T11:43:22;3.13;;;1.00;;
70132;SDS011;57495;49.922;7.966;2023-07-29T11:45:23;3.97;;;1.38;;
70132;SDS011;57495;49.922;7.966;2023-07-29T11:47:25;2.92;;;0.95;;
70132;SDS011;57495;49.922;7.966;2023-07-29T11:49:26;3.20;;;0.90;;
70132;SDS011;57495;49.922;7.966;2023-07-29T11:51:27;3.13;;;0.90;;
70132;SDS011;57495;49.922;7.966;2023-07-29T11:53:29;3.43;;;1.00;;
70132;SDS011;57495;49.922;7.966;2023-07-29T11:55:31;3.03;;;1.50;;
70132;SDS011;57495;49.922;7.966;2023-07-29T11:57:35;3.05;;;1.05;;
70132;SDS011;57495;49.922;7.966;2023-07-29T11:59:38;2.70;;;0.82;;
70132;SDS011;57495;49.922;7.966;2023-07-29T12:01:40;3.03;;;1.23;;
70132;SDS011;57495;49.922;7.966;2023-07-29T12:03:42;3.63;;;0.90;;
70132;SDS011;57495;49.922;7.966;2023-07-29T12:05:44;4.38;;;1.30;;
70132;SDS011;57495;49.922;7.966;2023-07-29T12:07:46;2.45;;;0.82;;
70132;SDS011;57495;49.922;7.966;2023-07-29T12:09:47;3.03;;;0.90;;
70132;SDS011;57495;49.922;7.966;2023-07-29T12:11:50;4.18;;;1.35;;
70132;SDS011;57495;49.922;7.966;2023-07-29T12:13:53;4.10;;;1.00;;
70132;SDS011;57495;49.922;7.966;2023-07-29T12:16:02;2.83;;;0.90;;
70132;SDS011;57495;49.922;7.966;2023-07-29T12:18:04;2.50;;;0.80;;
70132;SDS011;57495;49.922;7.966;2023-07-29T12:20:07;2.60;;;0.75;;